sensor_id;sensor_type;location;lat;lon;timestamp;P1;durP1;ratioP1;P2;durP2;ratioP2
64598;SDS011;51008;51.504;11.548;2024-03-29T00:04:09;3.83;;;1.58;;
64598;SDS011;51008;51.504;11.548;2024-03-29T00:09:10;4.53;;;1.75;;
64598;SDS011;51008;51.504;11.548;2024-03-29T00:14:11;3.95;;;1.70;;
64598;SDS011;51008;51.504;11.548;2024-03-29T00:19:12;3.50;;;1.58;;
64598;SDS011;51008;51.504;11.548;2024-03-29T00:24:13;4.30;;;2.00;;
64598;SDS011;51008;51.504;11.548;2024-03-29T00:29:14;5.93;;;2.00;;
64598;SDS011;51008;51.504;11.548;2024-03-29T00:34:15;6.65;;;2.58;;
64598;SDS011;51008;51.504;11.548;2024-03-29T00:39:16;3.25;;;1.90;;
64598;SDS011;51008;51.504;11.548;2024-03-29T00:44:17;5.45;;;1.98;;
64598;SDS011;51008;51.504;11.548;2024-03-29T00:49:19;4.70;;;2.08;;
64598;SDS011;51008;51.504;11.548;2024-03-29T00:54:20;4.65;;;2.25;;
64598;SDS011;51008;51.504;11.548;2024-03-29T00:59:21;8.35;;;3.80;;
64598;SDS011;51008;51.504;11.548;2024-03-29T01:04:22;20.30;;;7.60;;
64598;SDS011;51008;51.504;11.548;2024-03-29T01:09:23;18.80;;;7.50;;
64598;SDS011;51008;51.504;11.548;2024-03-29T01:14:24;24.48;;;8.95;;
64598;SDS011;51008;51.504;11.548;2024-03-29T01:19:26;17.92;;;6.97;;
64598;SDS011;51008;51.504;11.548;2024-03-29T01:24:27;13.40;;;4.40;;
64598;SDS011;51008;51.504;11.548;2024-03-29T01:29:28;6.35;;;2.28;;
64598;SDS011;51008;51.504;11.548;2024-03-29T01:34:29;3.05;;;1.73;;
64598;SDS011;51008;51.504;11.548;2024-03-29T01:39:31;6.72;;;1.95;;
64598;SDS011;51008;51.504;11.548;2024-03-29T01:44:32;5.65;;;1.92;;
64598;SDS011;51008;51.504;11.548;2024-03-29T01:49:33;7.38;;;2.58;;
64598;SDS011;51008;51.504;11.548;2024-03-29T01:54:35;5.22;;;2.00;;
64598;SDS011;51008;51.504;11.548;2024-03-29T01:59:36;5.75;;;1.83;;
64598;SDS011;51008;51.504;11.548;2024-03-29T02:04:38;3.03;;;1.63;;
64598;SDS011;51008;51.504;11.548;2024-03-29T02:09:40;3.30;;;1.40;;
64598;SDS011;51008;51.504;11.548;2024-03-29T02:14:41;2.83;;;1.40;;
64598;SDS011;51008;51.504;11.548;2024-03-29T02:19:42;9.95;;;1.60;;
64598;SDS011;51008;51.504;11.548;2024-03-29T02:24:43;4.38;;;1.13;;
64598;SDS011;51008;51.504;11.548;2024-03-29T02:29:44;2.35;;;1.10;;
64598;SDS011;51008;51.504;11.548;2024-03-29T02:34:46;3.70;;;1.30;;
64598;SDS011;51008;51.504;11.548;2024-03-29T02:39:47;3.92;;;1.60;;
64598;SDS011;51008;51.504;11.548;2024-03-29T02:44:48;4.95;;;2.00;;
64598;SDS011;51008;51.504;11.548;2024-03-29T02:49:49;6.07;;;1.70;;
64598;SDS011;51008;51.504;11.548;2024-03-29T02:54:50;7.30;;;2.20;;
64598;SDS011;51008;51.504;11.548;2024-03-29T02:59:51;6.30;;;1.88;;
64598;SDS011;51008;51.504;11.548;2024-03-29T03:04:52;4.18;;;1.80;;
64598;SDS011;51008;51.504;11.548;2024-03-29T03:09:53;5.90;;;1.92;;
64598;SDS011;51008;51.504;11.548;2024-03-29T03:14:54;8.00;;;1.88;;
64598;SDS011;51008;51.504;11.548;2024-03-29T03:19:55;3.75;;;1.27;;
64598;SDS011;51008;51.504;11.548;2024-03-29T03:24:56;3.20;;;1.20;;
64598;SDS011;51008;51.504;11.548;2024-03-29T03:29:57;3.97;;;1.20;;
64598;SDS011;51008;51.504;11.548;2024-03-29T03:34:58;5.10;;;1.02;;
64598;SDS011;51008;51.504;11.548;2024-03-29T03:39:59;18.67;;;6.25;;
64598;SDS011;51008;51.504;11.548;2024-03-29T03:45:01;4.10;;;1.17;;
64598;SDS011;51008;51.504;11.548;2024-03-29T03:50:02;3.10;;;1.15;;
64598;SDS011;51008;51.504;11.548;2024-03-29T03:55:03;3.13;;;0.95;;
64598;SDS011;51008;51.504;11.548;2024-03-29T04:00:05;2.67;;;1.00;;
64598;SDS011;51008;51.504;11.548;2024-03-29T04:05:12;2.25;;;0.90;;
64598;SDS011;51008;51.504;11.548;2024-03-29T04:10:14;4.20;;;1.15;;
64598;SDS011;51008;51.504;11.548;2024-03-29T04:15:15;5.85;;;1.20;;
64598;SDS011;51008;51.504;11.548;2024-03-29T04:20:16;4.50;;;1.00;;
64598;SDS011;51008;51.504;11.548;2024-03-29T04:25:17;5.10;;;1.30;;
64598;SDS011;51008;51.504;11.548;2024-03-29T04:30:18;3.05;;;0.98;;
64598;SDS011;51008;51.504;11.548;2024-03-29T04:35:19;2.85;;;1.40;;
64598;SDS011;51008;51.504;11.548;2024-03-29T04:40:20;5.00;;;1.90;;
64598;SDS011;51008;51.504;11.548;2024-03-29T04:45:21;2.95;;;1.50;;
64598;SDS011;51008;51.504;11.548;2024-03-29T04:50:23;5.50;;;1.38;;
64598;SDS011;51008;51.504;11.548;2024-03-29T04:55:24;6.68;;;1.42;;
64598;SDS011;51008;51.504;11.548;2024-03-29T05:00:25;3.22;;;1.40;;
64598;SDS011;51008;51.504;11.548;2024-03-29T05:05:26;2.83;;;1.40;;
64598;SDS011;51008;51.504;11.548;2024-03-29T05:10:27;5.20;;;1.25;;
64598;SDS011;51008;51.504;11.548;2024-03-29T05:15:28;4.80;;;1.25;;
64598;SDS011;51008;51.504;11.548;2024-03-29T05:20:29;5.82;;;1.10;;
64598;SDS011;51008;51.504;11.548;2024-03-29T05:25:31;1.77;;;0.93;;
64598;SDS011;51008;51.504;11.548;2024-03-29T05:30:32;3.33;;;1.20;;
64598;SDS011;51008;51.504;11.548;2024-03-29T05:35:33;3.30;;;1.30;;
64598;SDS011;51008;51.504;11.548;2024-03-29T05:40:34;2.95;;;0.88;;
64598;SDS011;51008;51.504;11.548;2024-03-29T05:45:35;1.80;;;0.80;;
64598;SDS011;51008;51.504;11.548;2024-03-29T05:50:37;3.33;;;0.90;;
64598;SDS011;51008;51.504;11.548;2024-03-29T05:55:38;3.67;;;0.80;;
64598;SDS011;51008;51.504;11.548;2024-03-29T06:00:39;3.80;;;1.08;;
64598;SDS011;51008;51.504;11.548;2024-03-29T06:05:40;5.28;;;1.40;;
64598;SDS011;51008;51.504;11.548;2024-03-29T06:10:41;3.70;;;1.00;;
64598;SDS011;51008;51.504;11.548;2024-03-29T06:15:42;3.47;;;0.93;;
64598;SDS011;51008;51.504;11.548;2024-03-29T06:20:43;1.63;;;0.88;;
64598;SDS011;51008;51.504;11.548;2024-03-29T06:25:44;3.17;;;1.50;;
64598;SDS011;51008;51.504;11.548;2024-03-29T06:30:45;4.28;;;1.25;;
64598;SDS011;51008;51.504;11.548;2024-03-29T06:35:52;2.75;;;1.00;;
64598;SDS011;51008;51.504;11.548;2024-03-29T06:40:54;3.88;;;1.00;;
64598;SDS011;51008;51.504;11.548;2024-03-29T06:45:55;2.92;;;1.13;;
64598;SDS011;51008;51.504;11.548;2024-03-29T06:50:57;6.90;;;1.20;;
64598;SDS011;51008;51.504;11.548;2024-03-29T06:55:59;4.68;;;1.20;;
64598;SDS011;51008;51.504;11.548;2024-03-29T07:01:01;3.45;;;1.40;;
64598;SDS011;51008;51.504;11.548;2024-03-29T07:06:03;9.27;;;1.30;;
64598;SDS011;51008;51.504;11.548;2024-03-29T07:11:04;6.53;;;1.42;;
64598;SDS011;51008;51.504;11.548;2024-03-29T07:16:05;4.72;;;1.25;;
64598;SDS011;51008;51.504;11.548;2024-03-29T07:21:06;2.83;;;1.15;;
64598;SDS011;51008;51.504;11.548;2024-03-29T07:26:08;2.28;;;0.95;;
64598;SDS011;51008;51.504;11.548;2024-03-29T07:31:09;3.78;;;1.00;;
64598;SDS011;51008;51.504;11.548;2024-03-29T07:36:10;5.30;;;1.30;;
64598;SDS011;51008;51.504;11.548;2024-03-29T07:41:11;2.30;;;1.10;;
64598;SDS011;51008;51.504;11.548;2024-03-29T07:46:12;3.22;;;1.48;;
64598;SDS011;51008;51.504;11.548;2024-03-29T07:51:13;3.58;;;1.13;;
64598;SDS011;51008;51.504;11.548;2024-03-29T07:56:14;3.22;;;0.90;;
64598;SDS011;51008;51.504;11.548;2024-03-29T08:01:18;2.42;;;1.25;;
64598;SDS011;51008;51.504;11.548;2024-03-29T08:06:20;4.85;;;1.73;;
64598;SDS011;51008;51.504;11.548;2024-03-29T08:11:22;4.50;;;1.67;;
64598;SDS011;51008;51.504;11.548;2024-03-29T08:16:23;2.00;;;1.02;;
64598;SDS011;51008;51.504;11.548;2024-03-29T08:21:24;6.30;;;1.23;;
64598;SDS011;51008;51.504;11.548;2024-03-29T08:26:26;5.25;;;1.27;;
64598;SDS011;51008;51.504;11.548;2024-03-29T08:31:28;5.63;;;1.10;;
64598;SDS011;51008;51.504;11.548;2024-03-29T08:36:29;2.78;;;1.10;;
64598;SDS011;51008;51.504;11.548;2024-03-29T08:41:30;2.13;;;1.08;;
64598;SDS011;51008;51.504;11.548;2024-03-29T08:46:31;3.17;;;1.20;;
64598;SDS011;51008;51.504;11.548;2024-03-29T08:51:33;5.03;;;1.10;;
64598;SDS011;51008;51.504;11.548;2024-03-29T08:56:34;2.92;;;1.20;;
64598;SDS011;51008;51.504;11.548;2024-03-29T09:01:42;4.38;;;1.15;;
64598;SDS011;51008;51.504;11.548;2024-03-29T09:06:45;3.95;;;1.17;;
64598;SDS011;51008;51.504;11.548;2024-03-29T09:11:46;4.00;;;1.20;;
64598;SDS011;51008;51.504;11.548;2024-03-29T09:16:47;11.88;;;3.60;;
64598;SDS011;51008;51.504;11.548;2024-03-29T09:21:48;1.55;;;1.08;;
64598;SDS011;51008;51.504;11.548;2024-03-29T09:26:49;4.57;;;1.60;;
64598;SDS011;51008;51.504;11.548;2024-03-29T09:31:50;2.55;;;1.10;;
64598;SDS011;51008;51.504;11.548;2024-03-29T09:36:51;2.00;;;0.90;;
64598;SDS011;51008;51.504;11.548;2024-03-29T09:41:52;1.80;;;0.85;;
64598;SDS011;51008;51.504;11.548;2024-03-29T09:46:56;2.03;;;1.05;;
64598;SDS011;51008;51.504;11.548;2024-03-29T09:52:00;8.57;;;2.97;;
64598;SDS011;51008;51.504;11.548;2024-03-29T09:57:02;6.15;;;3.22;;
64598;SDS011;51008;51.504;11.548;2024-03-29T10:02:11;2.45;;;1.13;;
64598;SDS011;51008;51.504;11.548;2024-03-29T10:07:15;3.63;;;1.10;;
64598;SDS011;51008;51.504;11.548;2024-03-29T10:12:17;2.28;;;0.80;;
64598;SDS011;51008;51.504;11.548;2024-03-29T10:17:18;5.43;;;2.35;;
64598;SDS011;51008;51.504;11.548;2024-03-29T10:22:20;2.45;;;0.80;;
64598;SDS011;51008;51.504;11.548;2024-03-29T10:27:21;1.48;;;0.90;;
64598;SDS011;51008;51.504;11.548;2024-03-29T10:32:24;0.63;;;0.60;;
64598;SDS011;51008;51.504;11.548;2024-03-29T10:37:25;2.40;;;1.00;;
64598;SDS011;51008;51.504;11.548;2024-03-29T10:42:26;2.10;;;0.60;;
64598;SDS011;51008;51.504;11.548;2024-03-29T10:47:28;5.18;;;1.70;;
64598;SDS011;51008;51.504;11.548;2024-03-29T10:52:33;5.75;;;2.10;;
64598;SDS011;51008;51.504;11.548;2024-03-29T10:57:35;3.50;;;2.00;;
64598;SDS011;51008;51.504;11.548;2024-03-29T11:07:58;2.60;;;1.60;;
64598;SDS011;51008;51.504;11.548;2024-03-29T11:18:21;2.75;;;1.50;;
64598;SDS011;51008;51.504;11.548;2024-03-29T11:23:26;2.60;;;1.60;;
64598;SDS011;51008;51.504;11.548;2024-03-29T11:28:31;25.60;;;13.68;;
64598;SDS011;51008;51.504;11.548;2024-03-29T11:38:43;3.70;;;1.95;;
64598;SDS011;51008;51.504;11.548;2024-03-29T11:43:46;6.07;;;2.00;;
64598;SDS011;51008;51.504;11.548;2024-03-29T11:48:47;3.95;;;1.95;;
64598;SDS011;51008;51.504;11.548;2024-03-29T11:53:48;1.65;;;1.05;;
64598;SDS011;51008;51.504;11.548;2024-03-29T11:58:49;3.25;;;0.90;;
64598;SDS011;51008;51.504;11.548;2024-03-29T12:03:50;3.53;;;1.20;;
64598;SDS011;51008;51.504;11.548;2024-03-29T12:08:52;3.50;;;1.45;;
64598;SDS011;51008;51.504;11.548;2024-03-29T12:13:53;1.98;;;1.05;;
64598;SDS011;51008;51.504;11.548;2024-03-29T12:18:54;3.38;;;1.20;;
64598;SDS011;51008;51.504;11.548;2024-03-29T12:23:55;1.27;;;1.00;;
64598;SDS011;51008;51.504;11.548;2024-03-29T12:28:56;1.17;;;0.77;;
64598;SDS011;51008;51.504;11.548;2024-03-29T12:33:57;1.25;;;0.80;;
64598;SDS011;51008;51.504;11.548;2024-03-29T12:38:58;3.55;;;1.00;;
64598;SDS011;51008;51.504;11.548;2024-03-29T12:43:59;0.95;;;0.70;;
64598;SDS011;51008;51.504;11.548;2024-03-29T12:49:00;1.25;;;0.90;;
64598;SDS011;51008;51.504;11.548;2024-03-29T12:54:01;2.95;;;1.02;;
64598;SDS011;51008;51.504;11.548;2024-03-29T12:59:02;1.10;;;1.00;;
64598;SDS011;51008;51.504;11.548;2024-03-29T13:04:03;3.10;;;1.30;;
64598;SDS011;51008;51.504;11.548;2024-03-29T13:09:04;2.13;;;1.23;;
64598;SDS011;51008;51.504;11.548;2024-03-29T13:14:05;2.42;;;1.00;;
64598;SDS011;51008;51.504;11.548;2024-03-29T13:19:06;2.42;;;0.90;;
64598;SDS011;51008;51.504;11.548;2024-03-29T13:24:07;2.97;;;1.10;;
64598;SDS011;51008;51.504;11.548;2024-03-29T13:29:08;2.05;;;1.00;;
64598;SDS011;51008;51.504;11.548;2024-03-29T13:34:09;1.90;;;1.13;;
64598;SDS011;51008;51.504;11.548;2024-03-29T13:39:10;1.10;;;1.00;;
64598;SDS011;51008;51.504;11.548;2024-03-29T13:44:11;3.53;;;1.40;;
64598;SDS011;51008;51.504;11.548;2024-03-29T13:49:12;3.58;;;1.15;;
64598;SDS011;51008;51.504;11.548;2024-03-29T13:54:13;2.40;;;1.02;;
64598;SDS011;51008;51.504;11.548;2024-03-29T13:59:15;1.65;;;0.90;;
64598;SDS011;51008;51.504;11.548;2024-03-29T14:04:16;2.13;;;0.98;;
64598;SDS011;51008;51.504;11.548;2024-03-29T14:09:17;2.05;;;1.05;;
64598;SDS011;51008;51.504;11.548;2024-03-29T14:14:18;3.35;;;1.23;;
64598;SDS011;51008;51.504;11.548;2024-03-29T14:19:19;2.58;;;1.30;;
64598;SDS011;51008;51.504;11.548;2024-03-29T14:24:20;2.25;;;1.30;;
64598;SDS011;51008;51.504;11.548;2024-03-29T14:29:21;2.97;;;1.20;;
64598;SDS011;51008;51.504;11.548;2024-03-29T14:34:22;4.95;;;1.60;;
64598;SDS011;51008;51.504;11.548;2024-03-29T14:39:23;3.03;;;1.40;;
64598;SDS011;51008;51.504;11.548;2024-03-29T14:44:24;2.92;;;1.60;;
64598;SDS011;51008;51.504;11.548;2024-03-29T14:49:25;1.90;;;1.30;;
64598;SDS011;51008;51.504;11.548;2024-03-29T14:54:26;2.60;;;2.08;;
64598;SDS011;51008;51.504;11.548;2024-03-29T14:59:27;3.08;;;1.33;;
64598;SDS011;51008;51.504;11.548;2024-03-29T15:04:28;3.95;;;1.70;;
64598;SDS011;51008;51.504;11.548;2024-03-29T15:09:30;2.50;;;1.80;;
64598;SDS011;51008;51.504;11.548;2024-03-29T15:14:31;3.92;;;1.67;;
64598;SDS011;51008;51.504;11.548;2024-03-29T15:19:32;4.25;;;1.55;;
64598;SDS011;51008;51.504;11.548;2024-03-29T15:24:33;4.13;;;1.63;;
64598;SDS011;51008;51.504;11.548;2024-03-29T15:29:34;2.05;;;1.35;;
64598;SDS011;51008;51.504;11.548;2024-03-29T15:34:35;2.13;;;1.33;;
64598;SDS011;51008;51.504;11.548;2024-03-29T15:39:36;2.10;;;1.27;;
64598;SDS011;51008;51.504;11.548;2024-03-29T15:44:38;1.65;;;1.20;;
64598;SDS011;51008;51.504;11.548;2024-03-29T15:49:39;1.88;;;1.10;;
64598;SDS011;51008;51.504;11.548;2024-03-29T15:54:40;2.13;;;1.10;;
64598;SDS011;51008;51.504;11.548;2024-03-29T15:59:41;2.17;;;1.20;;
64598;SDS011;51008;51.504;11.548;2024-03-29T16:04:42;2.10;;;1.17;;
64598;SDS011;51008;51.504;11.548;2024-03-29T16:09:43;2.33;;;1.35;;
64598;SDS011;51008;51.504;11.548;2024-03-29T16:14:44;1.45;;;0.98;;
64598;SDS011;51008;51.504;11.548;2024-03-29T16:19:45;1.45;;;0.80;;
64598;SDS011;51008;51.504;11.548;2024-03-29T16:24:46;2.40;;;1.10;;
64598;SDS011;51008;51.504;11.548;2024-03-29T16:29:47;1.38;;;0.90;;
64598;SDS011;51008;51.504;11.548;2024-03-29T16:34:49;1.45;;;1.05;;
64598;SDS011;51008;51.504;11.548;2024-03-29T16:39:50;1.52;;;0.80;;
64598;SDS011;51008;51.504;11.548;2024-03-29T16:44:51;2.95;;;1.10;;
64598;SDS011;51008;51.504;11.548;2024-03-29T16:49:52;2.28;;;1.30;;
64598;SDS011;51008;51.504;11.548;2024-03-29T16:54:53;2.78;;;1.10;;
64598;SDS011;51008;51.504;11.548;2024-03-29T16:59:54;4.50;;;2.08;;
64598;SDS011;51008;51.504;11.548;2024-03-29T17:04:55;2.47;;;1.10;;
64598;SDS011;51008;51.504;11.548;2024-03-29T17:09:57;2.95;;;1.48;;
64598;SDS011;51008;51.504;11.548;2024-03-29T17:14:58;4.90;;;1.83;;
64598;SDS011;51008;51.504;11.548;2024-03-29T17:19:59;4.40;;;2.33;;
64598;SDS011;51008;51.504;11.548;2024-03-29T17:25:00;3.78;;;1.60;;
64598;SDS011;51008;51.504;11.548;2024-03-29T17:30:01;2.38;;;1.20;;
64598;SDS011;51008;51.504;11.548;2024-03-29T17:35:03;1.38;;;0.90;;
64598;SDS011;51008;51.504;11.548;2024-03-29T17:40:05;1.80;;;1.00;;
64598;SDS011;51008;51.504;11.548;2024-03-29T17:45:06;5.13;;;3.20;;
64598;SDS011;51008;51.504;11.548;2024-03-29T17:50:08;6.35;;;4.40;;
64598;SDS011;51008;51.504;11.548;2024-03-29T17:55:09;4.72;;;2.85;;
64598;SDS011;51008;51.504;11.548;2024-03-29T18:00:10;11.45;;;5.75;;
64598;SDS011;51008;51.504;11.548;2024-03-29T18:05:14;15.15;;;8.10;;
64598;SDS011;51008;51.504;11.548;2024-03-29T18:10:16;13.40;;;7.00;;
64598;SDS011;51008;51.504;11.548;2024-03-29T18:15:17;5.88;;;2.67;;
64598;SDS011;51008;51.504;11.548;2024-03-29T18:20:18;4.93;;;2.60;;
64598;SDS011;51008;51.504;11.548;2024-03-29T18:25:20;12.77;;;5.60;;
64598;SDS011;51008;51.504;11.548;2024-03-29T18:30:21;7.90;;;3.88;;
64598;SDS011;51008;51.504;11.548;2024-03-29T18:35:23;12.43;;;4.78;;
64598;SDS011;51008;51.504;11.548;2024-03-29T18:40:25;5.72;;;1.90;;
64598;SDS011;51008;51.504;11.548;2024-03-29T18:45:27;7.50;;;3.17;;
64598;SDS011;51008;51.504;11.548;2024-03-29T18:50:28;4.25;;;1.90;;
64598;SDS011;51008;51.504;11.548;2024-03-29T18:55:30;3.28;;;1.63;;
64598;SDS011;51008;51.504;11.548;2024-03-29T19:00:32;7.65;;;2.47;;
64598;SDS011;51008;51.504;11.548;2024-03-29T19:05:33;4.60;;;2.42;;
64598;SDS011;51008;51.504;11.548;2024-03-29T19:10:34;6.18;;;3.10;;
64598;SDS011;51008;51.504;11.548;2024-03-29T19:15:35;9.75;;;4.70;;
64598;SDS011;51008;51.504;11.548;2024-03-29T19:20:37;9.60;;;5.10;;
64598;SDS011;51008;51.504;11.548;2024-03-29T19:25:38;7.90;;;4.97;;
64598;SDS011;51008;51.504;11.548;2024-03-29T19:30:39;11.98;;;7.00;;
64598;SDS011;51008;51.504;11.548;2024-03-29T19:35:40;11.68;;;6.72;;
64598;SDS011;51008;51.504;11.548;2024-03-29T19:40:42;11.23;;;7.32;;
64598;SDS011;51008;51.504;11.548;2024-03-29T19:45:43;9.93;;;7.50;;
64598;SDS011;51008;51.504;11.548;2024-03-29T19:50:44;8.25;;;5.00;;
64598;SDS011;51008;51.504;11.548;2024-03-29T19:55:51;7.97;;;4.53;;
64598;SDS011;51008;51.504;11.548;2024-03-29T20:00:52;9.52;;;5.20;;
64598;SDS011;51008;51.504;11.548;2024-03-29T20:05:53;9.65;;;5.18;;
64598;SDS011;51008;51.504;11.548;2024-03-29T20:10:54;8.65;;;5.43;;
64598;SDS011;51008;51.504;11.548;2024-03-29T20:15:55;6.35;;;4.13;;
64598;SDS011;51008;51.504;11.548;2024-03-29T20:20:56;6.97;;;4.00;;
64598;SDS011;51008;51.504;11.548;2024-03-29T20:25:58;8.60;;;5.40;;
64598;SDS011;51008;51.504;11.548;2024-03-29T20:31:02;6.68;;;3.97;;
64598;SDS011;51008;51.504;11.548;2024-03-29T20:36:05;6.57;;;4.00;;
64598;SDS011;51008;51.504;11.548;2024-03-29T20:41:06;7.85;;;3.88;;
64598;SDS011;51008;51.504;11.548;2024-03-29T20:46:08;4.63;;;3.13;;
64598;SDS011;51008;51.504;11.548;2024-03-29T20:51:09;5.70;;;3.05;;
64598;SDS011;51008;51.504;11.548;2024-03-29T20:56:10;6.55;;;3.55;;
64598;SDS011;51008;51.504;11.548;2024-03-29T21:01:11;6.68;;;3.80;;
64598;SDS011;51008;51.504;11.548;2024-03-29T21:06:12;18.65;;;7.05;;
64598;SDS011;51008;51.504;11.548;2024-03-29T21:11:13;14.18;;;6.75;;
64598;SDS011;51008;51.504;11.548;2024-03-29T21:16:14;9.15;;;5.00;;
64598;SDS011;51008;51.504;11.548;2024-03-29T21:21:15;11.38;;;6.20;;
64598;SDS011;51008;51.504;11.548;2024-03-29T21:26:16;7.63;;;4.30;;
64598;SDS011;51008;51.504;11.548;2024-03-29T21:31:17;7.05;;;3.33;;
64598;SDS011;51008;51.504;11.548;2024-03-29T21:36:18;6.10;;;3.35;;
64598;SDS011;51008;51.504;11.548;2024-03-29T21:41:19;7.00;;;4.07;;
64598;SDS011;51008;51.504;11.548;2024-03-29T21:46:20;8.38;;;3.35;;
64598;SDS011;51008;51.504;11.548;2024-03-29T21:51:21;4.90;;;2.63;;
64598;SDS011;51008;51.504;11.548;2024-03-29T21:56:22;4.40;;;2.53;;
64598;SDS011;51008;51.504;11.548;2024-03-29T22:01:23;5.53;;;2.95;;
64598;SDS011;51008;51.504;11.548;2024-03-29T22:06:24;14.98;;;3.67;;
64598;SDS011;51008;51.504;11.548;2024-03-29T22:11:25;6.95;;;3.30;;
64598;SDS011;51008;51.504;11.548;2024-03-29T22:16:26;6.40;;;3.08;;
64598;SDS011;51008;51.504;11.548;2024-03-29T22:21:27;4.68;;;2.63;;
64598;SDS011;51008;51.504;11.548;2024-03-29T22:26:28;5.60;;;2.80;;
64598;SDS011;51008;51.504;11.548;2024-03-29T22:31:29;4.85;;;3.13;;
64598;SDS011;51008;51.504;11.548;2024-03-29T22:36:31;4.65;;;3.05;;
64598;SDS011;51008;51.504;11.548;2024-03-29T22:41:32;6.88;;;3.35;;
64598;SDS011;51008;51.504;11.548;2024-03-29T22:46:33;4.55;;;2.53;;
64598;SDS011;51008;51.504;11.548;2024-03-29T22:51:34;3.95;;;2.55;;
64598;SDS011;51008;51.504;11.548;2024-03-29T22:56:35;4.53;;;2.38;;
64598;SDS011;51008;51.504;11.548;2024-03-29T23:01:36;3.40;;;2.40;;
64598;SDS011;51008;51.504;11.548;2024-03-29T23:06:37;7.22;;;2.92;;
64598;SDS011;51008;51.504;11.548;2024-03-29T23:11:38;4.97;;;2.50;;
64598;SDS011;51008;51.504;11.548;2024-03-29T23:16:40;10.32;;;4.63;;
64598;SDS011;51008;51.504;11.548;2024-03-29T23:21:41;8.35;;;4.05;;
64598;SDS011;51008;51.504;11.548;2024-03-29T23:26:42;5.28;;;3.15;;
64598;SDS011;51008;51.504;11.548;2024-03-29T23:31:43;9.52;;;3.72;;
64598;SDS011;51008;51.504;11.548;2024-03-29T23:36:44;9.77;;;3.78;;
64598;SDS011;51008;51.504;11.548;2024-03-29T23:41:45;6.78;;;2.78;;
64598;SDS011;51008;51.504;11.548;2024-03-29T23:46:46;7.95;;;4.30;;
64598;SDS011;51008;51.504;11.548;2024-03-29T23:51:47;12.98;;;6.47;;
64598;SDS011;51008;51.504;11.548;2024-03-29T23:56:48;8.85;;;4.70;;
